Time;durP1;ratioP1;P1;durP2;ratioP2;P2;SDS_P1;SDS_P2;PMS_P1;PMS_P2;Temp;Humidity;BMP_temperature;BMP_pressure;BME280_temperature;BME280_humidity;BME280_pressure;Samples;Min_cycle;Max_cycle;Signal;HPM_P1;HPM_P2
2022/03/03 00:00:19;;;;;;;32.72;20.52;;;2.70;99.90;;;;;;4994806;28;20069;-83
2022/03/03 00:02:45;;;;;;;33.35;18.77;;;2.60;99.90;;;;;;4996715;28;20127;-86
2022/03/03 00:05:11;;;;;;;39.30;18.80;;;2.60;99.90;;;;;;5007705;28;20492;-83
2022/03/03 00:07:37;;;;;;;31.45;17.83;;;2.60;99.90;;;;;;4984962;28;20041;-83
2022/03/03 00:10:04;;;;;;;35.80;17.52;;;3.40;99.90;;;;;;4995351;28;20052;-83
2022/03/03 00:12:30;;;;;;;28.45;18.08;;;2.50;99.90;;;;;;4994013;28;20179;-83
2022/03/03 00:14:56;;;;;;;30.55;15.90;;;2.50;99.90;;;;;;4977593;28;20074;-84
2022/03/03 00:17:22;;;;;;;34.15;16.63;;;2.40;99.90;;;;;;4990683;28;20064;-83
2022/03/03 00:19:50;;;;;;;37.03;17.75;;;2.60;99.90;;;;;;4992301;28;20128;-87
2022/03/03 00:22:16;;;;;;;38.17;18.08;;;2.90;99.90;;;;;;4983832;28;20117;-83
2022/03/03 00:24:43;;;;;;;33.17;18.85;;;2.30;99.90;;;;;;5004309;28;20067;-83
2022/03/03 00:27:09;;;;;;;30.48;17.77;;;3.60;99.90;;;;;;5009430;28;20694;-83
2022/03/03 00:29:35;;;;;;;32.25;16.92;;;2.30;99.90;;;;;;5003211;28;20141;-83
2022/03/03 00:32:01;;;;;;;35.75;18.48;;;2.30;99.90;;;;;;4964692;28;20073;-83
2022/03/03 00:34:26;;;;;;;34.05;18.10;;;2.90;99.90;;;;;;4983725;28;20495;-82
2022/03/03 00:36:52;;;;;;;34.88;17.73;;;2.20;99.90;;;;;;4988732;28;20038;-83
2022/03/03 00:39:18;;;;;;;39.80;20.23;;;2.20;99.90;;;;;;4994284;28;20048;-83
2022/03/03 00:41:44;;;;;;;34.83;18.05;;;2.20;99.90;;;;;;4980921;28;20378;-83
2022/03/03 00:44:10;;;;;;;30.45;17.58;;;2.20;99.90;;;;;;4982494;28;20106;-85
2022/03/03 00:46:39;;;;;;;30.20;17.43;;;3.60;99.90;;;;;;4983073;28;20504;-83
2022/03/03 00:49:05;;;;;;;33.42;16.63;;;2.20;99.90;;;;;;5006445;28;20046;-83
2022/03/03 00:51:31;;;;;;;31.13;17.27;;;2.20;99.90;;;;;;5011382;28;20046;-83
2022/03/03 00:53:57;;;;;;;27.03;16.47;;;2.10;99.90;;;;;;4965553;28;20523;-83
2022/03/03 00:56:23;;;;;;;35.97;19.03;;;3.20;99.90;;;;;;5020646;28;20299;-83
2022/03/03 00:58:50;;;;;;;37.03;17.48;;;3.30;99.90;;;;;;5009411;28;20041;-83
2022/03/03 01:01:16;;;;;;;42.88;18.52;;;3.20;99.90;;;;;;5006105;28;20483;-83
2022/03/03 01:03:43;;;;;;;44.40;19.67;;;2.60;99.90;;;;;;4977071;28;20049;-82
2022/03/03 01:06:09;;;;;;;42.10;18.80;;;2.00;99.90;;;;;;5002487;28;20530;-82
2022/03/03 01:08:35;;;;;;;29.83;17.63;;;3.00;99.90;;;;;;5011451;28;20120;-83
2022/03/03 01:11:03;;;;;;;32.83;18.35;;;2.30;99.90;;;;;;4991211;28;20042;-83
2022/03/03 01:13:28;;;;;;;28.25;15.90;;;2.50;99.90;;;;;;4990460;28;20045;-83
2022/03/03 01:15:54;;;;;;;29.45;16.65;;;1.90;99.90;;;;;;5011975;28;20373;-87
2022/03/03 01:18:21;;;;;;;31.80;17.33;;;2.30;99.90;;;;;;4988034;28;20057;-84
2022/03/03 01:20:47;;;;;;;28.50;15.70;;;1.90;99.90;;;;;;5009459;28;20072;-83
2022/03/03 01:23:13;;;;;;;34.60;16.30;;;1.80;99.90;;;;;;5004376;28;20057;-83
2022/03/03 01:25:38;;;;;;;37.00;17.77;;;1.70;99.90;;;;;;4990637;28;20048;-83
2022/03/03 01:28:05;;;;;;;29.77;15.32;;;2.60;99.90;;;;;;4972623;28;20072;-83
2022/03/03 01:30:30;;;;;;;32.00;17.63;;;2.10;99.90;;;;;;4990781;28;20064;-83
2022/03/03 01:32:56;;;;;;;31.20;17.08;;;1.40;99.90;;;;;;4976588;28;20041;-85
2022/03/03 01:35:22;;;;;;;27.70;15.18;;;1.30;99.90;;;;;;4978707;28;20530;-82
2022/03/03 01:37:48;;;;;;;32.67;16.40;;;1.30;99.90;;;;;;4993101;28;20530;-82
2022/03/03 01:40:13;;;;;;;36.55;17.38;;;1.30;99.90;;;;;;4965521;28;20073;-83
2022/03/03 01:42:40;;;;;;;34.47;18.10;;;1.20;99.90;;;;;;5010028;28;20396;-83
2022/03/03 01:45:07;;;;;;;35.38;18.17;;;1.10;99.90;;;;;;5007723;28;20395;-83
2022/03/03 01:47:33;;;;;;;37.75;19.08;;;1.10;99.90;;;;;;4992327;28;20075;-83
2022/03/03 01:49:59;;;;;;;36.37;15.30;;;1.10;99.90;;;;;;5014190;28;20056;-86
2022/03/03 01:52:25;;;;;;;38.83;16.42;;;1.10;99.90;;;;;;4992752;28;20496;-83
2022/03/03 01:54:51;;;;;;;35.23;17.77;;;1.10;99.90;;;;;;4982720;28;20078;-83
2022/03/03 01:57:19;;;;;;;42.30;18.13;;;1.00;99.90;;;;;;4986457;28;20041;-83
2022/03/03 01:59:46;;;;;;;37.90;15.75;;;1.00;99.90;;;;;;4995833;28;20037;-85
2022/03/03 02:02:12;;;;;;;30.17;16.55;;;1.00;99.90;;;;;;4976636;28;20037;-84
2022/03/03 02:04:39;;;;;;;43.58;17.92;;;2.00;99.90;;;;;;5003717;28;20100;-82
2022/03/03 02:07:09;;;;;;;34.30;16.85;;;1.70;99.90;;;;;;5000483;28;20049;-83
2022/03/03 02:09:35;;;;;;;31.70;15.55;;;1.00;99.90;;;;;;4991606;28;20128;-83
2022/03/03 02:12:03;;;;;;;31.33;15.95;;;1.90;99.90;;;;;;4979299;28;20034;-86
2022/03/03 02:14:29;;;;;;;27.45;16.33;;;0.90;99.90;;;;;;4968110;28;20038;-83
2022/03/03 02:16:54;;;;;;;31.30;17.05;;;1.70;99.90;;;;;;4981908;28;20049;-82
2022/03/03 02:19:21;;;;;;;36.55;17.63;;;0.90;99.90;;;;;;5005079;28;20041;-83
2022/03/03 02:21:51;;;;;;;35.72;15.95;;;0.90;99.90;;;;;;4963617;28;20081;-83
2022/03/03 02:24:20;;;;;;;34.92;18.10;;;1.80;99.90;;;;;;4999337;28;20124;-83
2022/03/03 02:26:50;;;;;;;35.63;17.10;;;1.40;99.90;;;;;;4981588;28;20058;-83
2022/03/03 02:29:16;;;;;;;34.08;15.18;;;0.90;99.90;;;;;;4968530;28;20129;-83
2022/03/03 02:31:41;;;;;;;32.38;16.83;;;0.90;99.90;;;;;;4994383;28;20552;-83
2022/03/03 02:34:07;;;;;;;30.40;13.60;;;1.00;99.90;;;;;;4990967;28;20381;-83
2022/03/03 02:36:33;;;;;;;30.17;14.68;;;0.90;99.90;;;;;;5018664;28;20045;-83
2022/03/03 02:39:01;;;;;;;27.13;14.43;;;0.80;99.90;;;;;;4982858;28;20064;-82
2022/03/03 02:41:27;;;;;;;34.42;15.50;;;0.80;99.90;;;;;;4972310;28;20596;-83
2022/03/03 02:43:54;;;;;;;30.58;15.75;;;0.70;99.90;;;;;;5002213;28;20447;-83
2022/03/03 02:46:20;;;;;;;32.10;15.88;;;0.70;99.90;;;;;;5006287;28;20129;-83
2022/03/03 02:48:46;;;;;;;38.13;17.10;;;0.60;99.90;;;;;;5016444;28;20124;-82
2022/03/03 02:51:12;;;;;;;27.00;17.70;;;1.70;99.90;;;;;;4972854;28;20052;-83
2022/03/03 02:53:37;;;;;;;38.33;15.25;;;0.50;99.90;;;;;;4986758;28;20519;-83
2022/03/03 02:56:05;;;;;;;32.00;15.85;;;0.40;99.90;;;;;;5030308;28;20125;-83
2022/03/03 02:58:31;;;;;;;31.40;16.55;;;0.40;99.90;;;;;;4972199;28;20062;-83
2022/03/03 03:00:57;;;;;;;35.75;16.23;;;0.50;99.90;;;;;;4979011;28;20034;-83
2022/03/03 03:03:23;;;;;;;40.33;16.83;;;1.70;99.90;;;;;;4999202;28;20084;-83
2022/03/03 03:05:49;;;;;;;27.63;15.68;;;0.90;99.90;;;;;;4994473;28;20080;-82
2022/03/03 03:08:15;;;;;;;28.25;16.35;;;0.50;99.90;;;;;;5003405;28;20180;-83
2022/03/03 03:10:41;;;;;;;28.97;17.53;;;1.40;99.90;;;;;;5004640;28;20079;-83
2022/03/03 03:13:10;;;;;;;24.67;13.95;;;0.40;99.90;;;;;;5010042;28;20368;-83
2022/03/03 03:15:36;;;;;;;26.20;14.20;;;0.30;99.90;;;;;;4992045;28;20064;-83
2022/03/03 03:18:14;;;;;;;29.97;16.67;;;0.60;99.90;;;;;;5013167;28;20068;-82
2022/03/03 03:20:42;;;;;;;31.48;12.73;;;0.20;99.90;;;;;;5004148;28;20046;-83
2022/03/03 03:23:09;;;;;;;25.30;14.35;;;0.70;99.90;;;;;;4991932;28;20049;-83
2022/03/03 03:25:37;;;;;;;29.50;16.90;;;0.10;99.90;;;;;;5004183;28;20493;-82
2022/03/03 03:28:05;;;;;;;29.55;15.77;;;1.10;99.90;;;;;;4971535;28;20056;-84
2022/03/03 03:30:31;;;;;;;21.80;13.20;;;0.10;99.90;;;;;;4983823;28;20049;-83
2022/03/03 03:32:56;;;;;;;33.88;16.67;;;0.00;99.90;;;;;;5003286;28;20404;-83
2022/03/03 03:35:23;;;;;;;30.35;14.15;;;0.00;99.90;;;;;;4989109;28;20049;-83
2022/03/03 03:37:49;;;;;;;28.08;15.15;;;0.00;99.90;;;;;;4958787;28;20037;-83
2022/03/03 03:40:15;;;;;;;24.90;15.00;;;-0.10;99.90;;;;;;4997006;28;20129;-83
2022/03/03 03:42:41;;;;;;;22.83;15.10;;;0.60;99.90;;;;;;5026276;28;20121;-83
2022/03/03 03:45:07;;;;;;;28.60;13.55;;;0.00;99.90;;;;;;4986648;28;20135;-82
2022/03/03 03:47:33;;;;;;;22.33;13.25;;;0.00;99.90;;;;;;4991915;28;20053;-83
2022/03/03 03:50:02;;;;;;;26.98;15.23;;;0.80;99.90;;;;;;4983729;28;20412;-83
2022/03/03 03:52:29;;;;;;;29.83;13.18;;;1.20;99.90;;;;;;4990486;28;20124;-83
2022/03/03 03:54:55;;;;;;;36.38;14.20;;;0.60;99.90;;;;;;5009156;28;20395;-83
2022/03/03 03:57:21;;;;;;;32.17;14.77;;;0.80;99.90;;;;;;5008597;28;20113;-83
2022/03/03 03:59:47;;;;;;;38.60;18.57;;;0.50;99.90;;;;;;4989632;28;20062;-82
2022/03/03 04:02:13;;;;;;;25.48;15.05;;;1.10;99.90;;;;;;4977727;28;20050;-83
2022/03/03 04:04:38;;;;;;;26.05;14.60;;;0.10;99.90;;;;;;5003293;28;20455;-82
2022/03/03 04:07:04;;;;;;;28.10;13.75;;;0.20;99.90;;;;;;5021570;28;20049;-84
2022/03/03 04:09:30;;;;;;;23.85;12.70;;;1.30;99.90;;;;;;4983067;28;20128;-83
2022/03/03 04:11:55;;;;;;;24.13;13.15;;;0.60;99.90;;;;;;4994140;28;20073;-83
2022/03/03 04:14:21;;;;;;;28.63;14.10;;;0.20;99.90;;;;;;4984643;28;20046;-83
2022/03/03 04:16:49;;;;;;;24.10;13.40;;;0.20;99.90;;;;;;5014329;28;20108;-83
2022/03/03 04:19:15;;;;;;;20.92;11.77;;;0.20;99.90;;;;;;4996823;28;20045;-83
2022/03/03 04:21:41;;;;;;;23.58;13.00;;;0.70;99.90;;;;;;4969904;28;20037;-83
2022/03/03 04:24:07;;;;;;;24.15;13.45;;;0.20;99.90;;;;;;4961858;28;20069;-82
2022/03/03 04:26:34;;;;;;;24.67;13.25;;;0.20;99.90;;;;;;5002953;28;20477;-83
2022/03/03 04:29:00;;;;;;;;;;;0.20;99.90;;;;;;5004546;28;20058;-83
2022/03/03 04:31:25;;;;;;;24.58;11.65;;;0.90;99.90;;;;;;4993446;28;19921;-83
2022/03/03 04:33:51;;;;;;;29.00;12.43;;;0.20;99.90;;;;;;4974583;28;20055;-82
2022/03/03 04:36:17;;;;;;;23.38;13.30;;;0.20;99.90;;;;;;4997835;28;20193;-82
2022/03/03 04:38:45;;;;;;;19.45;12.85;;;0.60;99.90;;;;;;4942715;28;20073;-82
2022/03/03 04:41:11;;;;;;;24.90;13.98;;;0.70;99.90;;;;;;5001133;28;20108;-82
2022/03/03 04:43:37;;;;;;;23.60;12.07;;;1.10;99.90;;;;;;4996168;28;20124;-82
2022/03/03 04:46:03;;;;;;;19.33;12.73;;;0.20;99.90;;;;;;4997648;28;20124;-82
2022/03/03 04:48:31;;;;;;;20.83;11.15;;;0.20;99.90;;;;;;4983402;28;20042;-83
2022/03/03 04:50:58;;;;;;;26.70;15.10;;;0.20;99.90;;;;;;4987044;28;20551;-82
2022/03/03 04:53:25;;;;;;;25.25;12.48;;;0.30;99.90;;;;;;4984350;28;20046;-87
2022/03/03 04:55:52;;;;;;;20.25;12.73;;;0.80;99.90;;;;;;4990597;28;20080;-82
2022/03/03 04:58:17;;;;;;;24.37;13.20;;;1.10;99.90;;;;;;4975027;28;20120;-83
2022/03/03 05:00:43;;;;;;;21.63;12.25;;;0.20;99.90;;;;;;4991390;28;20296;-83
2022/03/03 05:03:09;;;;;;;36.95;13.88;;;0.20;99.90;;;;;;4981337;28;20068;-83
2022/03/03 05:05:35;;;;;;;31.60;12.15;;;0.20;99.90;;;;;;4996485;28;20145;-83
2022/03/03 05:08:01;;;;;;;30.20;12.57;;;1.20;99.90;;;;;;4974243;28;20045;-82
2022/03/03 05:10:27;;;;;;;15.35;11.57;;;1.30;99.90;;;;;;4994124;28;20052;-83
2022/03/03 05:12:53;;;;;;;26.75;13.23;;;0.80;99.90;;;;;;4972642;28;20045;-83
2022/03/03 05:15:18;;;;;;;25.70;12.38;;;0.20;99.90;;;;;;4975743;28;20115;-83
2022/03/03 05:17:45;;;;;;;20.95;12.27;;;0.20;99.90;;;;;;4996557;28;20137;-82
2022/03/03 05:20:12;;;;;;;15.23;10.03;;;0.10;99.90;;;;;;5000584;28;20042;-83
2022/03/03 05:22:38;;;;;;;18.25;12.15;;;0.10;99.90;;;;;;4978493;28;20493;-83
2022/03/03 05:25:04;;;;;;;21.73;13.02;;;1.00;99.90;;;;;;4978153;28;20054;-82
2022/03/03 05:27:29;;;;;;;23.77;12.02;;;0.20;99.90;;;;;;4981797;28;20078;-83
2022/03/03 05:29:55;;;;;;;30.20;12.93;;;0.10;99.90;;;;;;4975790;28;20049;-83
2022/03/03 05:32:21;;;;;;;34.47;14.80;;;0.10;99.90;;;;;;4980993;28;20495;-83
2022/03/03 05:34:46;;;;;;;22.40;11.90;;;0.30;99.90;;;;;;5008886;28;20123;-82
2022/03/03 05:37:14;;;;;;;21.75;11.50;;;0.10;99.90;;;;;;4993712;28;20431;-83
2022/03/03 05:39:44;;;;;;;20.80;10.98;;;0.40;99.90;;;;;;5006406;28;20041;-84
2022/03/03 05:42:11;;;;;;;21.60;10.13;;;1.30;99.90;;;;;;5020439;28;20068;-83
2022/03/03 05:44:36;;;;;;;23.92;12.45;;;0.20;99.90;;;;;;5009051;28;20057;-83
2022/03/03 05:47:03;;;;;;;19.73;11.93;;;0.00;99.90;;;;;;4993298;28;20079;-84
2022/03/03 05:49:30;;;;;;;20.95;13.02;;;-0.10;99.90;;;;;;4990369;28;20491;-86
2022/03/03 05:51:56;;;;;;;23.27;11.88;;;-0.10;99.90;;;;;;4983630;28;20038;-83
2022/03/03 05:54:22;;;;;;;22.27;10.98;;;0.50;99.90;;;;;;4984581;28;20104;-82
2022/03/03 05:56:49;;;;;;;18.77;10.35;;;0.30;99.90;;;;;;5001989;28;20045;-83
2022/03/03 05:59:15;;;;;;;23.67;11.50;;;0.00;99.90;;;;;;4966906;28;20060;-83
2022/03/03 06:01:42;;;;;;;17.83;11.23;;;-0.20;99.90;;;;;;4998357;28;20049;-83
2022/03/03 06:04:12;;;;;;;23.02;11.55;;;0.50;99.90;;;;;;4979119;28;20489;-83
2022/03/03 06:06:41;;;;;;;18.65;11.00;;;-0.50;99.90;;;;;;5009568;28;20046;-84
2022/03/03 06:09:14;;;;;;;17.25;10.77;;;0.70;99.90;;;;;;4984895;28;20087;-83
2022/03/03 06:11:49;;;;;;;19.10;11.02;;;-0.60;99.90;;;;;;4994817;28;20042;-84
2022/03/03 06:14:35;;;;;;;22.35;10.70;;;0.80;99.90;;;;;;4975507;28;20042;-83
2022/03/03 06:17:01;;;;;;;23.95;11.38;;;-0.70;99.90;;;;;;5008506;28;20076;-83
2022/03/03 06:19:29;;;;;;;15.37;10.27;;;-0.70;99.90;;;;;;4983352;28;20046;-83
2022/03/03 06:21:55;;;;;;;30.10;11.50;;;0.50;99.90;;;;;;5010930;28;20639;-83
2022/03/03 06:24:21;;;;;;;19.80;11.37;;;-0.80;99.90;;;;;;5009902;28;20049;-82
2022/03/03 06:26:50;;;;;;;16.77;10.23;;;-0.70;99.90;;;;;;4989754;28;20293;-82
2022/03/03 06:29:16;;;;;;;21.80;10.88;;;-0.80;99.90;;;;;;5004358;28;20049;-84
2022/03/03 06:31:41;;;;;;;24.85;10.40;;;-0.80;99.90;;;;;;4990794;28;20489;-82
2022/03/03 06:34:07;;;;;;;18.23;9.63;;;-0.10;99.90;;;;;;4995719;28;20054;-81
2022/03/03 06:36:33;;;;;;;13.95;10.30;;;0.30;99.90;;;;;;4978660;28;20045;-81
2022/03/03 06:38:59;;;;;;;21.93;12.07;;;-0.80;99.90;;;;;;4996265;28;20038;-81
2022/03/03 06:41:26;;;;;;;21.75;9.88;;;-0.10;99.90;;;;;;4983852;28;20048;-81
2022/03/03 06:43:52;;;;;;;20.10;11.10;;;-0.80;99.90;;;;;;4979928;28;20099;-81
2022/03/03 06:46:18;;;;;;;24.98;12.30;;;0.60;99.90;;;;;;4981949;28;20557;-82
2022/03/03 06:48:50;;;;;;;28.58;12.15;;;0.50;99.90;;;;;;5013151;28;20045;-82
2022/03/03 06:51:15;;;;;;;25.67;11.45;;;-0.70;99.90;;;;;;4985544;28;20068;-81
2022/03/03 06:53:44;;;;;;;23.60;11.30;;;0.10;99.90;;;;;;4951593;28;20061;-83
2022/03/03 06:56:12;;;;;;;20.60;11.50;;;-0.50;99.90;;;;;;5028563;28;20571;-79
2022/03/03 06:58:39;;;;;;;22.73;11.15;;;0.70;99.90;;;;;;5011626;28;20053;-86
2022/03/03 07:01:09;;;;;;;;;;;-0.10;99.90;;;;;;5009058;28;20138;-84
2022/03/03 07:03:35;;;;;;;10.57;7.57;;;-0.50;99.90;;;;;;4992745;28;20012;-83
2022/03/03 07:06:02;;;;;;;15.45;9.48;;;0.20;99.90;;;;;;4995194;28;20056;-84
2022/03/03 07:08:29;;;;;;;21.98;12.35;;;1.10;99.90;;;;;;5013653;28;20519;-84
2022/03/03 07:10:55;;;;;;;27.87;14.10;;;0.50;99.90;;;;;;4992650;28;20424;-84
2022/03/03 07:13:21;;;;;;;22.27;13.07;;;2.50;99.90;;;;;;4979014;28;20568;-84
2022/03/03 07:15:52;;;;;;;26.23;15.00;;;1.80;99.90;;;;;;4995007;28;20136;-84
2022/03/03 07:18:32;;;;;;;26.25;14.23;;;2.50;99.90;;;;;;4998517;28;20084;-83
2022/03/03 07:21:08;;;;;;;22.52;14.40;;;2.20;99.90;;;;;;5009345;28;20046;-83
2022/03/03 07:23:39;;;;;;;24.80;14.75;;;2.40;99.90;;;;;;4997494;28;20127;-83
2022/03/03 07:26:08;;;;;;;27.65;14.88;;;3.20;99.90;;;;;;4986715;28;20046;-83
2022/03/03 07:28:38;;;;;;;23.23;14.57;;;3.90;99.90;;;;;;4994641;28;20046;-84
2022/03/03 07:31:03;;;;;;;18.98;13.20;;;3.80;99.90;;;;;;4982319;28;20487;-84
2022/03/03 07:33:47;;;;;;;22.20;14.10;;;4.20;99.90;;;;;;5004295;28;20057;-83
2022/03/03 07:36:18;;;;;;;20.75;13.32;;;4.50;99.90;;;;;;5013668;28;20061;-84
2022/03/03 07:39:04;;;;;;;22.63;13.40;;;4.90;99.90;;;;;;4976771;28;20041;-83
2022/03/03 07:41:33;;;;;;;19.45;12.18;;;5.20;99.90;;;;;;5010681;28;20073;-90
2022/03/03 07:44:03;;;;;;;24.80;14.35;;;5.40;99.90;;;;;;5007003;28;20044;-86
2022/03/03 07:46:29;;;;;;;19.75;12.52;;;5.40;99.90;;;;;;5011551;28;20041;-86
2022/03/03 07:48:55;;;;;;;20.00;12.10;;;5.90;99.90;;;;;;4993932;28;20103;-86
2022/03/03 07:51:22;;;;;;;;;;;6.20;99.90;;;;;;4993643;28;20041;-85
2022/03/03 07:53:50;;;;;;;18.38;11.60;;;6.40;99.90;;;;;;5006356;28;19930;-84
2022/03/03 07:56:26;;;;;;;24.52;13.35;;;6.60;99.90;;;;;;5002779;28;20081;-84
2022/03/03 07:58:58;;;;;;;22.35;11.27;;;6.80;99.90;;;;;;4987000;28;20053;-84
2022/03/03 08:01:25;;;;;;;17.27;12.35;;;7.00;99.90;;;;;;4994524;28;20381;-83
2022/03/03 08:03:52;;;;;;;21.52;12.35;;;7.00;99.90;;;;;;5009047;28;20079;-84
2022/03/03 08:06:21;;;;;;;18.98;11.60;;;7.10;99.90;;;;;;4988160;28;20045;-83
2022/03/03 08:08:52;;;;;;;20.40;12.18;;;7.30;99.90;;;;;;4989098;28;20053;-86
2022/03/03 08:11:19;;;;;;;20.75;11.43;;;7.40;99.90;;;;;;4999008;28;20104;-84
2022/03/03 08:13:46;;;;;;;19.75;12.10;;;7.60;99.90;;;;;;4990097;28;20042;-83
2022/03/03 08:16:12;;;;;;;19.25;11.52;;;7.80;99.90;;;;;;4992709;28;20045;-84
2022/03/03 08:18:38;;;;;;;15.57;11.10;;;8.00;99.90;;;;;;4994118;28;20037;-86
2022/03/03 08:21:05;;;;;;;21.80;11.33;;;8.20;99.90;;;;;;4991229;28;20048;-83
2022/03/03 08:23:32;;;;;;;17.15;11.32;;;8.30;99.90;;;;;;4976644;28;20163;-85
2022/03/03 08:25:59;;;;;;;18.65;11.70;;;8.30;99.90;;;;;;4988547;28;20069;-83
2022/03/03 08:28:26;;;;;;;19.90;11.50;;;8.40;99.90;;;;;;4991521;28;20060;-82
2022/03/03 08:30:58;;;;;;;17.88;11.73;;;8.60;99.90;;;;;;4982076;28;20077;-86
2022/03/03 08:33:48;;;;;;;23.95;12.23;;;8.70;99.90;;;;;;4999492;28;20095;-82
2022/03/03 08:36:45;;;;;;;16.40;12.07;;;8.80;99.90;;;;;;4994601;28;20124;-83
2022/03/03 08:39:14;;;;;;;16.60;10.98;;;9.00;99.90;;;;;;4997859;28;20675;-83
2022/03/03 08:41:40;;;;;;;20.88;12.00;;;9.30;99.90;;;;;;5014923;28;20553;-82
2022/03/03 08:44:07;;;;;;;;;;;9.20;99.90;;;;;;5032446;28;20488;-82
2022/03/03 08:46:35;;;;;;;17.90;10.48;;;9.30;94.40;;;;;;5014235;28;20334;-82
2022/03/03 08:49:04;;;;;;;16.65;11.25;;;9.50;99.90;;;;;;4997721;28;20400;-82
2022/03/03 08:51:30;;;;;;;15.00;10.38;;;9.50;99.90;;;;;;4998366;28;20480;-82
2022/03/03 08:53:56;;;;;;;16.30;11.10;;;9.70;98.90;;;;;;4998128;28;20136;-83
2022/03/03 08:56:23;;;;;;;17.02;10.38;;;9.80;97.50;;;;;;4998433;28;20111;-82
2022/03/03 08:58:50;;;;;;;15.02;10.55;;;10.00;96.20;;;;;;5014784;28;20085;-82
2022/03/03 09:01:16;;;;;;;18.42;9.90;;;10.20;96.20;;;;;;5014185;28;20045;-82
2022/03/03 09:03:43;;;;;;;16.90;11.13;;;10.40;95.00;;;;;;4963251;28;20076;-82
2022/03/03 09:06:13;;;;;;;15.18;10.60;;;10.50;93.00;;;;;;4962110;28;20120;-82
2022/03/03 09:08:39;;;;;;;18.98;10.73;;;10.60;90.90;;;;;;5006309;28;20053;-82
2022/03/03 09:11:05;;;;;;;15.70;10.30;;;10.50;91.80;;;;;;4997672;28;20076;-82
2022/03/03 09:13:30;;;;;;;17.90;11.50;;;10.20;92.90;;;;;;5014436;28;20125;-81
2022/03/03 09:15:56;;;;;;;17.27;10.13;;;9.90;93.10;;;;;;4997878;28;20067;-85
2022/03/03 09:18:22;;;;;;;13.10;9.17;;;9.70;93.60;;;;;;4976926;28;20041;-82
2022/03/03 09:20:48;;;;;;;15.23;10.33;;;9.50;93.70;;;;;;5028639;28;20480;-82
2022/03/03 09:23:13;;;;;;;17.33;9.87;;;8.40;92.70;;;;;;4981668;28;20400;-82
2022/03/03 09:25:39;;;;;;;13.50;9.17;;;9.20;91.80;;;;;;4982403;28;20049;-82
2022/03/03 09:28:06;;;;;;;16.00;9.90;;;9.20;92.50;;;;;;4997578;28;20045;-82
2022/03/03 09:30:32;;;;;;;18.55;9.73;;;9.40;92.80;;;;;;4965479;28;20056;-82
2022/03/03 09:32:58;;;;;;;15.18;9.50;;;9.60;91.40;;;;;;4998313;28;20059;-86
2022/03/03 09:35:25;;;;;;;14.43;9.07;;;9.90;87.40;;;;;;4998229;28;20547;-82
2022/03/03 09:37:51;;;;;;;16.50;8.95;;;10.10;86.60;;;;;;5014272;28;20095;-82
2022/03/03 09:40:17;;;;;;;19.27;9.98;;;10.10;83.90;;;;;;5013606;28;20508;-83
2022/03/03 09:43:04;;;;;;;13.90;8.98;;;9.90;82.90;;;;;;5014199;28;20041;-82
2022/03/03 09:45:31;;;;;;;13.10;8.32;;;9.80;79.80;;;;;;4998400;28;20056;-82
2022/03/03 09:47:58;;;;;;;;;;;9.60;83.70;;;;;;4998323;28;20128;-82
2022/03/03 09:50:26;;;;;;;15.00;9.93;;;9.50;79.50;;;;;;4997416;28;19920;-82
2022/03/03 09:52:53;;;;;;;14.95;8.95;;;9.40;84.20;;;;;;5014574;28;20444;-82
2022/03/03 09:55:19;;;;;;;;;;;9.60;83.50;;;;;;4997771;28;20079;-82
2022/03/03 09:57:45;;;;;;;14.82;9.13;;;9.70;77.90;;;;;;4997538;28;19921;-82
2022/03/03 10:00:12;;;;;;;12.57;9.27;;;10.00;83.30;;;;;;4998430;28;20068;-82
2022/03/03 10:03:17;;;;;;;12.25;8.82;;;10.20;81.00;;;;;;4968918;28;20092;-82
2022/03/03 10:05:47;;;;;;;14.93;9.27;;;10.50;73.20;;;;;;4920028;29;20131;-82
2022/03/03 10:08:25;;;;;;;11.20;8.27;;;10.70;78.70;;;;;;5004602;28;20487;-83
2022/03/03 10:10:54;;;;;;;14.20;8.52;;;10.60;74.50;;;;;;5000841;28;20085;-82
2022/03/03 10:13:20;;;;;;;19.88;9.63;;;10.60;76.10;;;;;;5014173;28;20068;-82
2022/03/03 10:15:57;;;;;;;10.85;7.95;;;10.60;77.30;;;;;;5013872;28;20045;-82
2022/03/03 10:18:24;;;;;;;14.88;9.35;;;10.70;75.70;;;;;;5017175;28;20057;-82
2022/03/03 10:20:58;;;;;;;11.02;7.72;;;10.70;76.10;;;;;;5017603;28;20081;-82
2022/03/03 10:23:44;;;;;;;13.98;8.35;;;10.70;73.80;;;;;;5001063;28;20128;-81
2022/03/03 10:26:10;;;;;;;13.85;8.73;;;10.50;72.10;;;;;;5001898;28;20144;-81
2022/03/03 10:28:38;;;;;;;13.65;8.80;;;10.40;73.30;;;;;;5017893;28;20049;-81
2022/03/03 10:31:13;;;;;;;12.77;7.68;;;10.40;73.00;;;;;;5016443;28;20061;-82
2022/03/03 10:33:46;;;;;;;12.70;7.78;;;10.40;71.80;;;;;;5001301;28;20049;-82
2022/03/03 10:36:20;;;;;;;13.13;7.88;;;10.50;71.80;;;;;;5015703;28;20574;-82
2022/03/03 10:38:49;;;;;;;11.40;8.88;;;10.50;71.10;;;;;;5001191;28;20445;-82
2022/03/03 10:41:31;;;;;;;9.02;7.90;;;10.50;71.00;;;;;;4999918;28;20080;-82
2022/03/03 10:44:00;;;;;;;11.63;7.85;;;10.60;67.60;;;;;;4981410;28;20100;-82
2022/03/03 10:46:26;;;;;;;13.00;7.20;;;10.70;68.20;;;;;;5005600;28;20042;-82
2022/03/03 10:48:51;;;;;;;11.73;8.30;;;10.70;68.90;;;;;;4968936;28;20044;-82
2022/03/03 10:51:19;;;;;;;10.47;8.07;;;10.80;68.30;;;;;;5016225;28;20041;-82
2022/03/03 10:53:45;;;;;;;10.18;6.93;;;10.80;67.50;;;;;;4981648;28;20045;-82
2022/03/03 10:56:15;;;;;;;8.98;7.35;;;10.90;67.30;;;;;;4999822;28;20543;-83
2022/03/03 10:58:52;;;;;;;10.38;7.45;;;11.10;68.50;;;;;;5017569;28;20045;-82
2022/03/03 11:01:27;;;;;;;12.20;7.95;;;11.10;67.60;;;;;;4999760;28;20045;-82
2022/03/03 11:03:54;;;;;;;14.50;8.30;;;11.10;67.00;;;;;;5000918;28;20053;-82
2022/03/03 11:06:24;;;;;;;15.77;8.32;;;11.20;67.30;;;;;;4999348;28;20075;-82
2022/03/03 11:08:51;;;;;;;12.85;7.80;;;11.20;67.10;;;;;;5001032;28;20080;-82
2022/03/03 11:11:17;;;;;;;16.02;7.82;;;11.40;66.70;;;;;;5015785;28;20114;-83
2022/03/03 11:13:45;;;;;;;11.95;7.53;;;11.40;65.30;;;;;;4999444;28;20048;-82
2022/03/03 11:16:11;;;;;;;9.65;7.30;;;11.40;66.10;;;;;;5016185;28;20120;-85
2022/03/03 11:18:38;;;;;;;13.35;8.20;;;11.50;65.80;;;;;;4999890;28;20496;-83
2022/03/03 11:21:04;;;;;;;;;;;11.90;65.20;;;;;;4984728;28;20041;-82
2022/03/03 11:23:53;;;;;;;10.30;7.18;;;12.10;62.40;;;;;;4999677;28;19921;-83
2022/03/03 11:26:31;;;;;;;14.30;7.55;;;12.30;63.20;;;;;;5000618;28;20064;-82
2022/03/03 11:29:17;;;;;;;14.52;8.63;;;12.30;63.70;;;;;;5016773;28;20061;-82
2022/03/03 11:31:45;;;;;;;12.45;8.05;;;12.30;63.70;;;;;;4980864;28;20072;-82
2022/03/03 11:34:40;;;;;;;12.55;7.47;;;12.40;63.00;;;;;;4967307;28;20049;-82
2022/03/03 11:37:21;;;;;;;9.75;7.25;;;12.60;62.10;;;;;;4999845;28;20513;-82
2022/03/03 11:40:01;;;;;;;10.48;7.43;;;13.00;62.30;;;;;;5016040;28;20045;-83
2022/03/03 11:42:35;;;;;;;13.27;7.50;;;12.90;59.70;;;;;;4988007;28;20095;-82
2022/03/03 11:45:28;;;;;;;11.80;7.97;;;13.10;61.60;;;;;;5015563;28;20045;-82
2022/03/03 11:48:12;;;;;;;8.63;6.95;;;13.40;59.20;;;;;;4999864;28;20385;-83
2022/03/03 11:50:39;;;;;;;10.88;7.60;;;13.70;58.60;;;;;;5015326;28;20041;-82
2022/03/03 11:53:11;;;;;;;9.10;7.38;;;13.80;60.50;;;;;;5015843;28;20051;-82
2022/03/03 11:55:43;;;;;;;12.65;7.82;;;13.60;59.60;;;;;;4998381;28;20195;-82
2022/03/03 11:58:10;;;;;;;13.07;8.45;;;13.80;60.10;;;;;;5015546;28;20396;-82
2022/03/03 12:00:39;;;;;;;;;;;13.80;60.50;;;;;;5015267;28;20183;-83
2022/03/03 12:03:08;;;;;;;12.70;7.82;;;13.70;56.90;;;;;;5015176;28;19968;-82
2022/03/03 12:05:42;;;;;;;12.30;8.15;;;13.80;60.40;;;;;;5015504;28;20106;-83
2022/03/03 12:08:11;;;;;;;13.00;8.48;;;13.70;61.10;;;;;;4999411;28;20049;-82
2022/03/03 12:10:38;;;;;;;13.07;8.00;;;13.60;60.00;;;;;;5015108;28;20659;-83
2022/03/03 12:13:22;;;;;;;;;;;13.90;60.30;;;;;;5015800;28;20049;-83
2022/03/03 12:16:29;;;;;;;14.27;8.07;;;13.90;57.20;;;;;;5015649;28;19956;-83
2022/03/03 12:18:54;;;;;;;14.85;7.70;;;13.70;58.90;;;;;;4998602;28;20060;-83
2022/03/03 12:21:28;;;;;;;12.80;8.47;;;12.70;60.00;;;;;;4998317;28;20476;-86
2022/03/03 12:24:12;;;;;;;13.45;8.02;;;13.70;60.70;;;;;;4997449;28;20089;-83
2022/03/03 12:26:59;;;;;;;14.77;8.90;;;14.00;57.60;;;;;;4998381;28;20049;-84
2022/03/03 12:29:48;;;;;;;10.63;7.38;;;14.00;57.60;;;;;;4998452;28;20065;-83
2022/03/03 12:32:29;;;;;;;15.88;7.97;;;14.00;57.10;;;;;;4998626;28;20072;-83
2022/03/03 12:34:58;;;;;;;11.77;7.63;;;14.10;58.60;;;;;;4999154;28;20468;-83
2022/03/03 12:37:24;;;;;;;13.98;7.88;;;14.20;59.30;;;;;;4997938;28;20053;-83
2022/03/03 12:39:55;;;;;;;9.63;7.70;;;14.30;60.90;;;;;;5014145;28;20045;-84
2022/03/03 12:42:22;;;;;;;13.88;8.07;;;14.40;60.20;;;;;;4995069;28;20121;-87
2022/03/03 12:44:55;;;;;;;11.32;7.95;;;14.60;60.00;;;;;;4979410;28;20452;-83
2022/03/03 12:47:34;;;;;;;14.45;7.78;;;14.90;59.60;;;;;;5014885;28;20055;-84